Terminal Aerodrome Forecast
Issued by NWS

Home | Current Version | Previous Version | Text Only | Print | Product List | Glossary On
Versions: 1 2 3 4 5 6 7 8 9 10 11 12 13 14 15 16 17 18 19 20 21 22 23 24 25 26 27 28 29 30 31 32
000
FTUS44 KFWD 060039 AAA
TAFFTW
TAF AMD
KFTW 060039Z 0601/0624 14016KT P6SM VCSH SCT025 BKN045
      TEMPO 0601/0603 BKN025
     FM060300 15016KT P6SM -SHRA VCTS BKN025CB
     FM060400 15015KT 6SM SHRA VCTS BKN018CB
     FM060800 16015KT P6SM BKN012
     FM061700 17015KT P6SM BKN024
     FM061900 18015KT P6SM VCSH BKN035=

USA.gov is the U.S. government's official web portal to all federal, state and local government web resources and services.